sensor_id;sensor_type;location;lat;lon;timestamp;P1;durP1;ratioP1;P2;durP2;ratioP2
66272;SDS011;58450;52.150;4.466;2023-06-04T00:01:26;4.38;;;1.50;;
66272;SDS011;58450;52.150;4.466;2023-06-04T00:03:54;2.15;;;1.40;;
66272;SDS011;58450;52.150;4.466;2023-06-04T00:06:21;3.00;;;1.50;;
66272;SDS011;58450;52.150;4.466;2023-06-04T00:08:49;1.98;;;1.27;;
66272;SDS011;58450;52.150;4.466;2023-06-04T00:11:16;3.90;;;1.20;;
66272;SDS011;58450;52.150;4.466;2023-06-04T00:13:45;2.40;;;1.40;;
66272;SDS011;58450;52.150;4.466;2023-06-04T00:16:14;2.70;;;1.45;;
66272;SDS011;58450;52.150;4.466;2023-06-04T00:18:42;3.25;;;1.40;;
66272;SDS011;58450;52.150;4.466;2023-06-04T00:21:09;2.90;;;1.30;;
66272;SDS011;58450;52.150;4.466;2023-06-04T00:23:37;2.58;;;1.20;;
66272;SDS011;58450;52.150;4.466;2023-06-04T00:26:04;1.40;;;1.10;;
66272;SDS011;58450;52.150;4.466;2023-06-04T00:28:32;4.18;;;1.40;;
66272;SDS011;58450;52.150;4.466;2023-06-04T00:31:00;2.88;;;1.20;;
66272;SDS011;58450;52.150;4.466;2023-06-04T00:33:30;3.75;;;1.35;;
66272;SDS011;58450;52.150;4.466;2023-06-04T00:35:58;2.95;;;1.30;;
66272;SDS011;58450;52.150;4.466;2023-06-04T00:38:25;2.20;;;1.13;;
66272;SDS011;58450;52.150;4.466;2023-06-04T00:40:53;2.65;;;1.33;;
66272;SDS011;58450;52.150;4.466;2023-06-04T00:43:21;2.75;;;1.30;;
66272;SDS011;58450;52.150;4.466;2023-06-04T00:45:51;2.97;;;1.40;;
66272;SDS011;58450;52.150;4.466;2023-06-04T00:48:19;1.50;;;1.20;;
66272;SDS011;58450;52.150;4.466;2023-06-04T00:50:49;4.18;;;1.30;;
66272;SDS011;58450;52.150;4.466;2023-06-04T00:53:18;3.88;;;1.35;;
66272;SDS011;58450;52.150;4.466;2023-06-04T00:55:47;2.03;;;1.17;;
66272;SDS011;58450;52.150;4.466;2023-06-04T00:58:14;2.90;;;1.38;;
66272;SDS011;58450;52.150;4.466;2023-06-04T01:00:42;2.17;;;1.20;;
66272;SDS011;58450;52.150;4.466;2023-06-04T01:03:14;4.38;;;1.40;;
66272;SDS011;58450;52.150;4.466;2023-06-04T01:05:54;2.88;;;1.45;;
66272;SDS011;58450;52.150;4.466;2023-06-04T01:08:29;2.20;;;1.20;;
66272;SDS011;58450;52.150;4.466;2023-06-04T01:10:58;3.33;;;1.38;;
66272;SDS011;58450;52.150;4.466;2023-06-04T01:13:25;3.05;;;1.42;;
66272;SDS011;58450;52.150;4.466;2023-06-04T01:15:53;2.63;;;0.98;;
66272;SDS011;58450;52.150;4.466;2023-06-04T01:18:23;2.35;;;1.15;;
66272;SDS011;58450;52.150;4.466;2023-06-04T01:20:57;2.15;;;1.25;;
66272;SDS011;58450;52.150;4.466;2023-06-04T01:23:32;2.28;;;1.20;;
66272;SDS011;58450;52.150;4.466;2023-06-04T01:26:09;2.33;;;1.17;;
66272;SDS011;58450;52.150;4.466;2023-06-04T01:28:38;2.15;;;1.25;;
66272;SDS011;58450;52.150;4.466;2023-06-04T01:31:06;1.73;;;1.10;;
66272;SDS011;58450;52.150;4.466;2023-06-04T01:33:35;2.28;;;1.30;;
66272;SDS011;58450;52.150;4.466;2023-06-04T01:36:05;2.72;;;1.20;;
66272;SDS011;58450;52.150;4.466;2023-06-04T01:38:35;2.35;;;1.50;;
66272;SDS011;58450;52.150;4.466;2023-06-04T01:41:03;1.90;;;1.30;;
66272;SDS011;58450;52.150;4.466;2023-06-04T01:43:31;4.28;;;1.40;;
66272;SDS011;58450;52.150;4.466;2023-06-04T01:46:00;1.90;;;1.17;;
66272;SDS011;58450;52.150;4.466;2023-06-04T01:48:29;2.38;;;1.13;;
66272;SDS011;58450;52.150;4.466;2023-06-04T01:50:57;2.47;;;1.20;;
66272;SDS011;58450;52.150;4.466;2023-06-04T01:53:27;2.97;;;1.20;;
66272;SDS011;58450;52.150;4.466;2023-06-04T01:55:55;1.80;;;1.20;;
66272;SDS011;58450;52.150;4.466;2023-06-04T01:58:24;2.33;;;1.27;;
66272;SDS011;58450;52.150;4.466;2023-06-04T02:00:54;2.63;;;1.35;;
66272;SDS011;58450;52.150;4.466;2023-06-04T02:03:26;1.48;;;1.20;;
66272;SDS011;58450;52.150;4.466;2023-06-04T02:05:53;2.03;;;1.10;;
66272;SDS011;58450;52.150;4.466;2023-06-04T02:08:21;2.53;;;1.30;;
66272;SDS011;58450;52.150;4.466;2023-06-04T02:10:52;2.17;;;1.30;;
66272;SDS011;58450;52.150;4.466;2023-06-04T02:13:20;2.10;;;1.15;;
66272;SDS011;58450;52.150;4.466;2023-06-04T02:15:47;2.15;;;1.20;;
66272;SDS011;58450;52.150;4.466;2023-06-04T02:18:16;1.83;;;1.30;;
66272;SDS011;58450;52.150;4.466;2023-06-04T02:20:47;1.75;;;1.08;;
66272;SDS011;58450;52.150;4.466;2023-06-04T02:23:16;1.90;;;1.13;;
66272;SDS011;58450;52.150;4.466;2023-06-04T02:25:46;1.55;;;1.08;;
66272;SDS011;58450;52.150;4.466;2023-06-04T02:28:16;1.88;;;1.10;;
66272;SDS011;58450;52.150;4.466;2023-06-04T02:30:44;2.50;;;1.10;;
66272;SDS011;58450;52.150;4.466;2023-06-04T02:33:12;2.05;;;1.20;;
66272;SDS011;58450;52.150;4.466;2023-06-04T02:35:41;1.65;;;1.13;;
66272;SDS011;58450;52.150;4.466;2023-06-04T02:38:08;3.70;;;1.30;;
66272;SDS011;58450;52.150;4.466;2023-06-04T02:40:36;3.67;;;1.40;;
66272;SDS011;58450;52.150;4.466;2023-06-04T02:43:04;1.98;;;1.10;;
66272;SDS011;58450;52.150;4.466;2023-06-04T02:45:33;2.30;;;1.10;;
66272;SDS011;58450;52.150;4.466;2023-06-04T02:48:00;2.03;;;1.13;;
66272;SDS011;58450;52.150;4.466;2023-06-04T02:50:28;2.55;;;1.17;;
66272;SDS011;58450;52.150;4.466;2023-06-04T02:52:55;2.03;;;1.20;;
66272;SDS011;58450;52.150;4.466;2023-06-04T02:55:23;1.70;;;1.15;;
66272;SDS011;58450;52.150;4.466;2023-06-04T02:57:51;1.60;;;1.00;;
66272;SDS011;58450;52.150;4.466;2023-06-04T03:00:18;3.47;;;1.20;;
66272;SDS011;58450;52.150;4.466;2023-06-04T03:02:47;2.55;;;1.30;;
66272;SDS011;58450;52.150;4.466;2023-06-04T03:05:16;3.55;;;1.48;;
66272;SDS011;58450;52.150;4.466;2023-06-04T03:07:44;3.00;;;1.33;;
66272;SDS011;58450;52.150;4.466;2023-06-04T03:10:13;2.13;;;1.30;;
66272;SDS011;58450;52.150;4.466;2023-06-04T03:12:43;3.67;;;1.20;;
66272;SDS011;58450;52.150;4.466;2023-06-04T03:15:11;1.88;;;1.20;;
66272;SDS011;58450;52.150;4.466;2023-06-04T03:17:40;2.70;;;1.00;;
66272;SDS011;58450;52.150;4.466;2023-06-04T03:20:09;1.60;;;1.02;;
66272;SDS011;58450;52.150;4.466;2023-06-04T03:22:37;2.13;;;1.20;;
66272;SDS011;58450;52.150;4.466;2023-06-04T03:25:05;3.50;;;1.10;;
66272;SDS011;58450;52.150;4.466;2023-06-04T03:27:34;2.85;;;1.27;;
66272;SDS011;58450;52.150;4.466;2023-06-04T03:30:03;2.67;;;1.20;;
66272;SDS011;58450;52.150;4.466;2023-06-04T03:32:32;2.15;;;1.20;;
66272;SDS011;58450;52.150;4.466;2023-06-04T03:35:00;2.90;;;1.17;;
66272;SDS011;58450;52.150;4.466;2023-06-04T03:37:30;2.17;;;1.10;;
66272;SDS011;58450;52.150;4.466;2023-06-04T03:39:58;2.25;;;1.23;;
66272;SDS011;58450;52.150;4.466;2023-06-04T03:42:26;2.47;;;1.30;;
66272;SDS011;58450;52.150;4.466;2023-06-04T03:44:53;2.78;;;1.10;;
66272;SDS011;58450;52.150;4.466;2023-06-04T03:47:23;2.35;;;1.15;;
66272;SDS011;58450;52.150;4.466;2023-06-04T03:49:51;2.80;;;1.33;;
66272;SDS011;58450;52.150;4.466;2023-06-04T03:52:18;2.05;;;1.17;;
66272;SDS011;58450;52.150;4.466;2023-06-04T03:54:47;2.53;;;1.33;;
66272;SDS011;58450;52.150;4.466;2023-06-04T03:57:15;2.63;;;1.40;;
66272;SDS011;58450;52.150;4.466;2023-06-04T03:59:42;4.00;;;1.45;;
66272;SDS011;58450;52.150;4.466;2023-06-04T04:02:11;2.55;;;1.20;;
66272;SDS011;58450;52.150;4.466;2023-06-04T04:04:38;2.63;;;1.55;;
66272;SDS011;58450;52.150;4.466;2023-06-04T04:07:06;2.15;;;1.20;;
66272;SDS011;58450;52.150;4.466;2023-06-04T04:09:33;1.95;;;1.20;;
66272;SDS011;58450;52.150;4.466;2023-06-04T04:12:03;1.85;;;1.10;;
66272;SDS011;58450;52.150;4.466;2023-06-04T04:14:32;2.50;;;1.63;;
66272;SDS011;58450;52.150;4.466;2023-06-04T04:16:59;1.88;;;1.35;;
66272;SDS011;58450;52.150;4.466;2023-06-04T04:19:27;4.25;;;1.35;;
66272;SDS011;58450;52.150;4.466;2023-06-04T04:21:55;4.15;;;1.50;;
66272;SDS011;58450;52.150;4.466;2023-06-04T04:24:22;2.70;;;1.60;;
66272;SDS011;58450;52.150;4.466;2023-06-04T04:26:50;2.67;;;1.45;;
66272;SDS011;58450;52.150;4.466;2023-06-04T04:29:21;2.72;;;1.42;;
66272;SDS011;58450;52.150;4.466;2023-06-04T04:31:50;2.00;;;1.40;;
66272;SDS011;58450;52.150;4.466;2023-06-04T04:34:18;3.42;;;1.50;;
66272;SDS011;58450;52.150;4.466;2023-06-04T04:36:47;2.60;;;1.60;;
66272;SDS011;58450;52.150;4.466;2023-06-04T04:39:18;3.72;;;1.40;;
66272;SDS011;58450;52.150;4.466;2023-06-04T04:41:46;2.67;;;1.52;;
66272;SDS011;58450;52.150;4.466;2023-06-04T04:44:13;4.13;;;1.60;;
66272;SDS011;58450;52.150;4.466;2023-06-04T04:46:42;2.97;;;1.77;;
66272;SDS011;58450;52.150;4.466;2023-06-04T04:49:10;4.88;;;1.70;;
66272;SDS011;58450;52.150;4.466;2023-06-04T04:51:38;3.30;;;1.80;;
66272;SDS011;58450;52.150;4.466;2023-06-04T04:54:06;4.00;;;2.05;;
66272;SDS011;58450;52.150;4.466;2023-06-04T04:56:34;3.67;;;2.03;;
66272;SDS011;58450;52.150;4.466;2023-06-04T04:59:01;3.03;;;1.85;;
66272;SDS011;58450;52.150;4.466;2023-06-04T05:01:29;4.20;;;1.80;;
66272;SDS011;58450;52.150;4.466;2023-06-04T05:03:58;5.00;;;1.85;;
66272;SDS011;58450;52.150;4.466;2023-06-04T05:06:26;3.72;;;1.90;;
66272;SDS011;58450;52.150;4.466;2023-06-04T05:08:53;2.85;;;1.80;;
66272;SDS011;58450;52.150;4.466;2023-06-04T05:11:21;3.80;;;2.15;;
66272;SDS011;58450;52.150;4.466;2023-06-04T05:13:48;3.53;;;1.80;;
66272;SDS011;58450;52.150;4.466;2023-06-04T05:16:16;4.43;;;2.25;;
66272;SDS011;58450;52.150;4.466;2023-06-04T05:18:46;4.32;;;2.13;;
66272;SDS011;58450;52.150;4.466;2023-06-04T05:21:15;4.40;;;2.10;;
66272;SDS011;58450;52.150;4.466;2023-06-04T05:23:42;5.82;;;2.30;;
66272;SDS011;58450;52.150;4.466;2023-06-04T05:26:13;4.30;;;2.00;;
66272;SDS011;58450;52.150;4.466;2023-06-04T05:28:41;4.53;;;2.03;;
66272;SDS011;58450;52.150;4.466;2023-06-04T05:31:10;4.78;;;2.50;;
66272;SDS011;58450;52.150;4.466;2023-06-04T05:33:39;3.97;;;2.05;;
66272;SDS011;58450;52.150;4.466;2023-06-04T05:36:06;5.47;;;2.10;;
66272;SDS011;58450;52.150;4.466;2023-06-04T05:38:35;3.95;;;1.92;;
66272;SDS011;58450;52.150;4.466;2023-06-04T05:41:03;3.97;;;2.08;;
66272;SDS011;58450;52.150;4.466;2023-06-04T05:43:31;4.25;;;2.03;;
66272;SDS011;58450;52.150;4.466;2023-06-04T05:45:58;4.47;;;2.08;;
66272;SDS011;58450;52.150;4.466;2023-06-04T05:48:26;3.80;;;1.63;;
66272;SDS011;58450;52.150;4.466;2023-06-04T05:50:53;4.47;;;1.95;;
66272;SDS011;58450;52.150;4.466;2023-06-04T05:53:21;3.70;;;1.60;;
66272;SDS011;58450;52.150;4.466;2023-06-04T05:55:50;5.63;;;1.80;;
66272;SDS011;58450;52.150;4.466;2023-06-04T05:58:18;3.63;;;1.88;;
66272;SDS011;58450;52.150;4.466;2023-06-04T06:00:45;3.60;;;1.67;;
66272;SDS011;58450;52.150;4.466;2023-06-04T06:03:14;3.83;;;1.80;;
66272;SDS011;58450;52.150;4.466;2023-06-04T06:05:42;3.92;;;1.60;;
66272;SDS011;58450;52.150;4.466;2023-06-04T06:08:10;5.22;;;1.75;;
66272;SDS011;58450;52.150;4.466;2023-06-04T06:10:37;5.28;;;1.80;;
66272;SDS011;58450;52.150;4.466;2023-06-04T06:13:06;3.63;;;1.40;;
66272;SDS011;58450;52.150;4.466;2023-06-04T06:15:34;2.53;;;1.38;;
66272;SDS011;58450;52.150;4.466;2023-06-04T06:18:01;3.33;;;1.30;;
66272;SDS011;58450;52.150;4.466;2023-06-04T06:20:29;5.18;;;1.67;;
66272;SDS011;58450;52.150;4.466;2023-06-04T06:22:57;3.08;;;1.48;;
66272;SDS011;58450;52.150;4.466;2023-06-04T06:25:33;3.35;;;1.55;;
66272;SDS011;58450;52.150;4.466;2023-06-04T06:28:00;4.03;;;1.63;;
66272;SDS011;58450;52.150;4.466;2023-06-04T06:30:29;5.22;;;1.67;;
66272;SDS011;58450;52.150;4.466;2023-06-04T06:32:57;3.38;;;1.58;;
66272;SDS011;58450;52.150;4.466;2023-06-04T06:35:24;3.13;;;1.20;;
66272;SDS011;58450;52.150;4.466;2023-06-04T06:37:52;3.50;;;1.20;;
66272;SDS011;58450;52.150;4.466;2023-06-04T06:40:19;5.93;;;1.48;;
66272;SDS011;58450;52.150;4.466;2023-06-04T06:42:47;3.28;;;1.23;;
66272;SDS011;58450;52.150;4.466;2023-06-04T06:45:17;2.67;;;1.25;;
66272;SDS011;58450;52.150;4.466;2023-06-04T06:47:46;2.28;;;1.10;;
66272;SDS011;58450;52.150;4.466;2023-06-04T06:50:14;2.63;;;1.30;;
66272;SDS011;58450;52.150;4.466;2023-06-04T06:52:42;2.65;;;1.25;;
66272;SDS011;58450;52.150;4.466;2023-06-04T06:55:09;3.53;;;1.30;;
66272;SDS011;58450;52.150;4.466;2023-06-04T06:57:37;3.22;;;1.25;;
66272;SDS011;58450;52.150;4.466;2023-06-04T07:00:05;2.90;;;1.27;;
66272;SDS011;58450;52.150;4.466;2023-06-04T07:02:34;2.33;;;1.30;;
66272;SDS011;58450;52.150;4.466;2023-06-04T07:05:03;2.70;;;1.20;;
66272;SDS011;58450;52.150;4.466;2023-06-04T07:07:32;3.10;;;1.20;;
66272;SDS011;58450;52.150;4.466;2023-06-04T07:09:59;2.22;;;1.10;;
66272;SDS011;58450;52.150;4.466;2023-06-04T07:12:27;2.30;;;1.10;;
66272;SDS011;58450;52.150;4.466;2023-06-04T07:14:54;1.90;;;1.15;;
66272;SDS011;58450;52.150;4.466;2023-06-04T07:17:22;2.47;;;1.30;;
66272;SDS011;58450;52.150;4.466;2023-06-04T07:19:49;1.60;;;0.90;;
66272;SDS011;58450;52.150;4.466;2023-06-04T07:22:18;3.08;;;0.95;;
66272;SDS011;58450;52.150;4.466;2023-06-04T07:24:46;2.80;;;1.02;;
66272;SDS011;58450;52.150;4.466;2023-06-04T07:27:14;2.85;;;0.80;;
66272;SDS011;58450;52.150;4.466;2023-06-04T07:29:42;2.65;;;0.98;;
66272;SDS011;58450;52.150;4.466;2023-06-04T07:32:11;1.92;;;0.98;;
66272;SDS011;58450;52.150;4.466;2023-06-04T07:34:39;2.65;;;1.00;;
66272;SDS011;58450;52.150;4.466;2023-06-04T07:37:07;2.63;;;0.90;;
66272;SDS011;58450;52.150;4.466;2023-06-04T07:39:36;2.00;;;0.90;;
66272;SDS011;58450;52.150;4.466;2023-06-04T07:42:04;1.80;;;0.90;;
66272;SDS011;58450;52.150;4.466;2023-06-04T07:44:32;3.25;;;0.90;;
66272;SDS011;58450;52.150;4.466;2023-06-04T07:47:00;1.50;;;0.80;;
66272;SDS011;58450;52.150;4.466;2023-06-04T07:49:28;2.33;;;1.02;;
66272;SDS011;58450;52.150;4.466;2023-06-04T07:51:55;2.00;;;0.98;;
66272;SDS011;58450;52.150;4.466;2023-06-04T07:54:23;2.42;;;0.95;;
66272;SDS011;58450;52.150;4.466;2023-06-04T07:56:52;2.30;;;0.80;;
66272;SDS011;58450;52.150;4.466;2023-06-04T07:59:21;1.85;;;0.70;;
66272;SDS011;58450;52.150;4.466;2023-06-04T08:01:49;1.98;;;0.88;;
66272;SDS011;58450;52.150;4.466;2023-06-04T08:04:18;2.35;;;0.90;;
66272;SDS011;58450;52.150;4.466;2023-06-04T08:06:45;2.72;;;0.90;;
66272;SDS011;58450;52.150;4.466;2023-06-04T08:09:13;1.35;;;0.80;;
66272;SDS011;58450;52.150;4.466;2023-06-04T08:11:41;2.25;;;0.88;;
66272;SDS011;58450;52.150;4.466;2023-06-04T08:14:11;4.07;;;1.10;;
66272;SDS011;58450;52.150;4.466;2023-06-04T08:16:39;2.42;;;0.90;;
66272;SDS011;58450;52.150;4.466;2023-06-04T08:19:07;4.75;;;1.00;;
66272;SDS011;58450;52.150;4.466;2023-06-04T08:21:34;1.92;;;0.93;;
66272;SDS011;58450;52.150;4.466;2023-06-04T08:24:03;2.15;;;0.93;;
66272;SDS011;58450;52.150;4.466;2023-06-04T08:26:30;1.55;;;1.05;;
66272;SDS011;58450;52.150;4.466;2023-06-04T08:29:01;1.52;;;0.73;;
66272;SDS011;58450;52.150;4.466;2023-06-04T08:31:31;1.98;;;0.88;;
66272;SDS011;58450;52.150;4.466;2023-06-04T08:33:59;1.88;;;0.98;;
66272;SDS011;58450;52.150;4.466;2023-06-04T08:36:30;2.35;;;0.90;;
66272;SDS011;58450;52.150;4.466;2023-06-04T08:38:58;2.25;;;0.80;;
66272;SDS011;58450;52.150;4.466;2023-06-04T08:41:28;1.63;;;0.80;;
66272;SDS011;58450;52.150;4.466;2023-06-04T08:44:00;1.98;;;0.93;;
66272;SDS011;58450;52.150;4.466;2023-06-04T08:46:33;1.98;;;0.98;;
66272;SDS011;58450;52.150;4.466;2023-06-04T08:49:06;2.05;;;0.88;;
66272;SDS011;58450;52.150;4.466;2023-06-04T08:51:35;2.95;;;0.93;;
66272;SDS011;58450;52.150;4.466;2023-06-04T08:54:04;2.10;;;0.90;;
66272;SDS011;58450;52.150;4.466;2023-06-04T08:56:33;3.92;;;0.90;;
66272;SDS011;58450;52.150;4.466;2023-06-04T08:59:03;2.30;;;0.70;;
66272;SDS011;58450;52.150;4.466;2023-06-04T09:01:34;2.08;;;0.73;;
66272;SDS011;58450;52.150;4.466;2023-06-04T09:04:04;2.05;;;1.00;;
66272;SDS011;58450;52.150;4.466;2023-06-04T09:06:33;1.85;;;0.82;;
66272;SDS011;58450;52.150;4.466;2023-06-04T09:09:02;2.00;;;0.80;;
66272;SDS011;58450;52.150;4.466;2023-06-04T09:11:35;1.35;;;0.73;;
66272;SDS011;58450;52.150;4.466;2023-06-04T09:14:08;1.70;;;0.75;;
66272;SDS011;58450;52.150;4.466;2023-06-04T09:16:43;2.03;;;0.95;;
66272;SDS011;58450;52.150;4.466;2023-06-04T09:19:13;2.33;;;0.90;;
66272;SDS011;58450;52.150;4.466;2023-06-04T09:21:48;2.42;;;0.90;;
66272;SDS011;58450;52.150;4.466;2023-06-04T09:24:17;2.17;;;0.80;;
66272;SDS011;58450;52.150;4.466;2023-06-04T09:26:45;2.30;;;0.90;;
66272;SDS011;58450;52.150;4.466;2023-06-04T09:29:12;1.67;;;0.80;;
66272;SDS011;58450;52.150;4.466;2023-06-04T09:31:41;2.08;;;0.82;;
66272;SDS011;58450;52.150;4.466;2023-06-04T09:34:13;2.17;;;0.88;;
66272;SDS011;58450;52.150;4.466;2023-06-04T09:36:41;3.15;;;0.90;;
66272;SDS011;58450;52.150;4.466;2023-06-04T09:39:15;1.27;;;0.70;;
66272;SDS011;58450;52.150;4.466;2023-06-04T09:41:43;1.90;;;0.80;;
66272;SDS011;58450;52.150;4.466;2023-06-04T09:44:11;1.67;;;0.88;;
66272;SDS011;58450;52.150;4.466;2023-06-04T09:46:39;1.63;;;0.77;;
66272;SDS011;58450;52.150;4.466;2023-06-04T09:49:08;1.23;;;0.68;;
66272;SDS011;58450;52.150;4.466;2023-06-04T09:51:35;1.50;;;0.93;;
66272;SDS011;58450;52.150;4.466;2023-06-04T09:54:14;2.03;;;0.90;;
66272;SDS011;58450;52.150;4.466;2023-06-04T09:56:42;2.13;;;0.80;;
66272;SDS011;58450;52.150;4.466;2023-06-04T09:59:10;3.65;;;1.25;;
66272;SDS011;58450;52.150;4.466;2023-06-04T10:01:40;1.80;;;0.88;;
66272;SDS011;58450;52.150;4.466;2023-06-04T10:04:10;1.65;;;0.70;;
66272;SDS011;58450;52.150;4.466;2023-06-04T10:06:41;2.78;;;0.70;;
66272;SDS011;58450;52.150;4.466;2023-06-04T10:09:10;2.33;;;0.80;;
66272;SDS011;58450;52.150;4.466;2023-06-04T10:11:43;1.55;;;0.70;;
66272;SDS011;58450;52.150;4.466;2023-06-04T10:14:21;1.63;;;0.77;;
66272;SDS011;58450;52.150;4.466;2023-06-04T10:16:51;2.28;;;0.70;;
66272;SDS011;58450;52.150;4.466;2023-06-04T10:19:25;2.47;;;1.00;;
66272;SDS011;58450;52.150;4.466;2023-06-04T10:21:55;2.17;;;0.73;;
66272;SDS011;58450;52.150;4.466;2023-06-04T10:24:23;1.50;;;0.93;;
66272;SDS011;58450;52.150;4.466;2023-06-04T10:26:52;3.10;;;1.00;;
66272;SDS011;58450;52.150;4.466;2023-06-04T10:29:25;1.80;;;1.00;;
66272;SDS011;58450;52.150;4.466;2023-06-04T10:31:53;1.65;;;0.85;;
66272;SDS011;58450;52.150;4.466;2023-06-04T10:34:22;1.50;;;0.90;;
66272;SDS011;58450;52.150;4.466;2023-06-04T10:36:51;1.80;;;0.90;;
66272;SDS011;58450;52.150;4.466;2023-06-04T10:39:24;1.88;;;0.90;;
66272;SDS011;58450;52.150;4.466;2023-06-04T10:41:57;1.77;;;0.77;;
66272;SDS011;58450;52.150;4.466;2023-06-04T10:44:26;1.50;;;0.80;;
66272;SDS011;58450;52.150;4.466;2023-06-04T10:46:54;2.30;;;0.80;;
66272;SDS011;58450;52.150;4.466;2023-06-04T10:49:27;2.15;;;0.80;;
66272;SDS011;58450;52.150;4.466;2023-06-04T10:52:09;1.77;;;0.80;;
66272;SDS011;58450;52.150;4.466;2023-06-04T10:54:37;1.80;;;0.90;;
66272;SDS011;58450;52.150;4.466;2023-06-04T10:57:10;1.75;;;0.73;;
66272;SDS011;58450;52.150;4.466;2023-06-04T11:02:06;1.10;;;0.68;;
66272;SDS011;58450;52.150;4.466;2023-06-04T11:04:35;1.55;;;0.80;;
66272;SDS011;58450;52.150;4.466;2023-06-04T11:07:05;1.70;;;0.80;;
66272;SDS011;58450;52.150;4.466;2023-06-04T11:09:35;2.03;;;0.90;;
66272;SDS011;58450;52.150;4.466;2023-06-04T11:12:04;1.63;;;0.90;;
66272;SDS011;58450;52.150;4.466;2023-06-04T11:14:33;1.95;;;0.75;;
66272;SDS011;58450;52.150;4.466;2023-06-04T11:17:08;2.00;;;0.88;;
66272;SDS011;58450;52.150;4.466;2023-06-04T11:19:37;2.13;;;0.70;;
66272;SDS011;58450;52.150;4.466;2023-06-04T11:22:07;3.50;;;0.95;;
66272;SDS011;58450;52.150;4.466;2023-06-04T11:24:38;1.90;;;0.80;;
66272;SDS011;58450;52.150;4.466;2023-06-04T11:27:05;2.50;;;1.00;;
66272;SDS011;58450;52.150;4.466;2023-06-04T11:29:33;2.17;;;1.00;;
66272;SDS011;58450;52.150;4.466;2023-06-04T11:32:01;1.80;;;0.77;;
66272;SDS011;58450;52.150;4.466;2023-06-04T11:34:29;1.45;;;0.80;;
66272;SDS011;58450;52.150;4.466;2023-06-04T11:37:08;1.83;;;0.65;;
66272;SDS011;58450;52.150;4.466;2023-06-04T11:39:36;3.40;;;0.98;;
66272;SDS011;58450;52.150;4.466;2023-06-04T11:42:06;2.17;;;0.80;;
66272;SDS011;58450;52.150;4.466;2023-06-04T11:44:34;3.22;;;0.85;;
66272;SDS011;58450;52.150;4.466;2023-06-04T11:47:04;2.17;;;0.70;;
66272;SDS011;58450;52.150;4.466;2023-06-04T11:49:33;1.83;;;0.90;;
66272;SDS011;58450;52.150;4.466;2023-06-04T11:52:02;1.48;;;0.88;;
66272;SDS011;58450;52.150;4.466;2023-06-04T11:54:33;3.38;;;1.00;;
66272;SDS011;58450;52.150;4.466;2023-06-04T11:57:04;1.47;;;0.70;;
66272;SDS011;58450;52.150;4.466;2023-06-04T11:59:32;2.95;;;0.85;;
66272;SDS011;58450;52.150;4.466;2023-06-04T12:02:01;1.23;;;0.90;;
66272;SDS011;58450;52.150;4.466;2023-06-04T12:04:30;1.83;;;0.77;;
66272;SDS011;58450;52.150;4.466;2023-06-04T12:06:58;3.13;;;0.93;;
66272;SDS011;58450;52.150;4.466;2023-06-04T12:09:28;2.75;;;1.10;;
66272;SDS011;58450;52.150;4.466;2023-06-04T12:12:00;1.60;;;0.80;;
66272;SDS011;58450;52.150;4.466;2023-06-04T12:14:29;1.00;;;0.77;;
66272;SDS011;58450;52.150;4.466;2023-06-04T12:16:58;1.98;;;0.70;;
66272;SDS011;58450;52.150;4.466;2023-06-04T12:19:28;2.30;;;0.98;;
66272;SDS011;58450;52.150;4.466;2023-06-04T12:21:59;1.70;;;0.88;;
66272;SDS011;58450;52.150;4.466;2023-06-04T12:24:28;2.25;;;1.00;;
66272;SDS011;58450;52.150;4.466;2023-06-04T12:27:04;1.70;;;0.80;;
66272;SDS011;58450;52.150;4.466;2023-06-04T12:29:34;2.78;;;1.10;;
66272;SDS011;58450;52.150;4.466;2023-06-04T12:32:02;1.63;;;0.90;;
66272;SDS011;58450;52.150;4.466;2023-06-04T12:34:33;1.85;;;0.80;;
66272;SDS011;58450;52.150;4.466;2023-06-04T12:37:02;1.95;;;0.68;;
66272;SDS011;58450;52.150;4.466;2023-06-04T12:39:31;3.25;;;0.80;;
66272;SDS011;58450;52.150;4.466;2023-06-04T12:41:59;2.58;;;0.75;;
66272;SDS011;58450;52.150;4.466;2023-06-04T12:44:28;2.45;;;0.80;;
66272;SDS011;58450;52.150;4.466;2023-06-04T12:46:56;1.55;;;0.80;;
66272;SDS011;58450;52.150;4.466;2023-06-04T12:49:24;4.30;;;1.17;;
66272;SDS011;58450;52.150;4.466;2023-06-04T12:51:51;4.68;;;1.38;;
66272;SDS011;58450;52.150;4.466;2023-06-04T12:54:19;3.55;;;1.42;;
66272;SDS011;58450;52.150;4.466;2023-06-04T12:56:47;5.97;;;1.20;;
66272;SDS011;58450;52.150;4.466;2023-06-04T12:59:16;3.95;;;1.05;;
66272;SDS011;58450;52.150;4.466;2023-06-04T13:01:45;5.05;;;1.30;;
66272;SDS011;58450;52.150;4.466;2023-06-04T13:04:12;4.97;;;1.23;;
66272;SDS011;58450;52.150;4.466;2023-06-04T13:06:40;4.57;;;1.80;;
66272;SDS011;58450;52.150;4.466;2023-06-04T13:09:07;5.05;;;1.40;;
66272;SDS011;58450;52.150;4.466;2023-06-04T13:11:37;3.05;;;1.13;;
66272;SDS011;58450;52.150;4.466;2023-06-04T13:14:05;4.82;;;1.25;;
66272;SDS011;58450;52.150;4.466;2023-06-04T13:16:34;3.85;;;1.20;;
66272;SDS011;58450;52.150;4.466;2023-06-04T13:19:03;3.78;;;1.20;;
66272;SDS011;58450;52.150;4.466;2023-06-04T13:21:32;3.53;;;1.27;;
66272;SDS011;58450;52.150;4.466;2023-06-04T13:24:00;3.85;;;1.45;;
66272;SDS011;58450;52.150;4.466;2023-06-04T13:26:28;3.05;;;1.17;;
66272;SDS011;58450;52.150;4.466;2023-06-04T13:28:55;4.32;;;1.30;;
66272;SDS011;58450;52.150;4.466;2023-06-04T13:31:23;3.20;;;1.17;;
66272;SDS011;58450;52.150;4.466;2023-06-04T13:33:51;4.03;;;1.30;;
66272;SDS011;58450;52.150;4.466;2023-06-04T13:36:19;5.07;;;1.45;;
66272;SDS011;58450;52.150;4.466;2023-06-04T13:38:47;5.63;;;1.55;;
66272;SDS011;58450;52.150;4.466;2023-06-04T13:41:14;5.00;;;1.40;;
66272;SDS011;58450;52.150;4.466;2023-06-04T13:43:42;3.88;;;1.42;;
66272;SDS011;58450;52.150;4.466;2023-06-04T13:46:09;2.63;;;1.05;;
66272;SDS011;58450;52.150;4.466;2023-06-04T13:48:37;4.80;;;1.48;;
66272;SDS011;58450;52.150;4.466;2023-06-04T13:51:04;3.72;;;1.30;;
66272;SDS011;58450;52.150;4.466;2023-06-04T13:53:33;7.00;;;1.67;;
66272;SDS011;58450;52.150;4.466;2023-06-04T13:56:01;4.03;;;1.30;;
66272;SDS011;58450;52.150;4.466;2023-06-04T13:58:28;3.40;;;1.10;;
66272;SDS011;58450;52.150;4.466;2023-06-04T14:00:56;4.68;;;1.48;;
66272;SDS011;58450;52.150;4.466;2023-06-04T14:03:24;5.95;;;1.40;;
66272;SDS011;58450;52.150;4.466;2023-06-04T14:05:51;4.40;;;1.40;;
66272;SDS011;58450;52.150;4.466;2023-06-04T14:08:19;6.13;;;1.60;;
66272;SDS011;58450;52.150;4.466;2023-06-04T14:10:47;4.45;;;1.40;;
66272;SDS011;58450;52.150;4.466;2023-06-04T14:13:17;6.75;;;1.73;;
66272;SDS011;58450;52.150;4.466;2023-06-04T14:15:45;4.18;;;1.50;;
66272;SDS011;58450;52.150;4.466;2023-06-04T14:18:12;4.93;;;1.50;;
66272;SDS011;58450;52.150;4.466;2023-06-04T14:20:40;3.05;;;1.27;;
66272;SDS011;58450;52.150;4.466;2023-06-04T14:23:08;4.57;;;1.48;;
66272;SDS011;58450;52.150;4.466;2023-06-04T14:25:37;4.57;;;1.35;;
66272;SDS011;58450;52.150;4.466;2023-06-04T14:28:06;5.13;;;1.55;;
66272;SDS011;58450;52.150;4.466;2023-06-04T14:30:34;5.97;;;1.55;;
66272;SDS011;58450;52.150;4.466;2023-06-04T14:33:01;4.80;;;1.42;;
66272;SDS011;58450;52.150;4.466;2023-06-04T14:35:29;5.05;;;1.77;;
66272;SDS011;58450;52.150;4.466;2023-06-04T14:37:56;6.18;;;1.60;;
66272;SDS011;58450;52.150;4.466;2023-06-04T14:40:24;5.88;;;1.50;;
66272;SDS011;58450;52.150;4.466;2023-06-04T14:42:51;4.65;;;1.42;;
66272;SDS011;58450;52.150;4.466;2023-06-04T14:45:20;4.88;;;1.50;;
66272;SDS011;58450;52.150;4.466;2023-06-04T14:47:48;3.97;;;1.55;;
66272;SDS011;58450;52.150;4.466;2023-06-04T14:50:17;7.35;;;1.95;;
66272;SDS011;58450;52.150;4.466;2023-06-04T14:52:45;6.65;;;1.63;;
66272;SDS011;58450;52.150;4.466;2023-06-04T14:55:12;4.82;;;1.60;;
66272;SDS011;58450;52.150;4.466;2023-06-04T14:57:40;6.18;;;1.70;;
66272;SDS011;58450;52.150;4.466;2023-06-04T15:00:08;4.47;;;1.50;;